Time;durP1;ratioP1;P1;durP2;ratioP2;P2;SDS_P1;SDS_P2;PMS_P1;PMS_P2;Temp;Humidity;BMP_temperature;BMP_pressure;BME280_temperature;BME280_humidity;BME280_pressure;Samples;Min_cycle;Max_cycle;Signal;HPM_P1;HPM_P2
2022/05/10 00:01:31;;;;;;;12.65;5.20;;;15.40;99.90;;;;;;5094161;28;20039;-64
2022/05/10 00:03:59;;;;;;;11.63;5.07;;;15.30;99.90;;;;;;5076352;28;20075;-65
2022/05/10 00:06:27;;;;;;;12.18;5.30;;;15.30;99.90;;;;;;5094344;28;20154;-65
2022/05/10 00:08:53;;;;;;;14.80;6.72;;;15.20;99.90;;;;;;5094411;28;20494;-65
2022/05/10 00:11:18;;;;;;;14.20;6.10;;;15.20;99.90;;;;;;5092805;28;20051;-63
2022/05/10 00:13:44;;;;;;;12.13;6.22;;;15.10;99.90;;;;;;5076364;28;20052;-66
2022/05/10 00:16:14;;;;;;;12.07;6.15;;;15.00;99.90;;;;;;5094215;28;20078;-65
2022/05/10 00:18:41;;;;;;;16.67;6.45;;;15.00;99.90;;;;;;5094997;28;20071;-65
2022/05/10 00:21:09;;;;;;;14.10;6.55;;;15.00;99.90;;;;;;5094343;28;20055;-65
2022/05/10 00:23:34;;;;;;;13.88;5.95;;;14.90;99.90;;;;;;5094389;28;20043;-65
2022/05/10 00:26:00;;;;;;;12.82;5.82;;;14.80;99.90;;;;;;5076166;28;20044;-64
2022/05/10 00:28:26;;;;;;;11.23;6.05;;;14.70;99.90;;;;;;5094273;28;20044;-64
2022/05/10 00:30:52;;;;;;;13.60;6.28;;;14.60;99.90;;;;;;5092674;28;20054;-64
2022/05/10 00:33:23;;;;;;;14.75;6.35;;;14.60;99.90;;;;;;5059716;28;20028;-66
2022/05/10 00:35:49;;;;;;;10.05;5.78;;;14.60;99.90;;;;;;5093984;28;20067;-65
2022/05/10 00:38:14;;;;;;;10.45;6.03;;;14.50;99.90;;;;;;5076427;28;20074;-66
2022/05/10 00:40:40;;;;;;;13.90;6.13;;;14.50;99.90;;;;;;5093861;28;20483;-65
2022/05/10 00:43:22;;;;;;;11.50;5.85;;;14.50;99.90;;;;;;5076470;28;20176;-65
2022/05/10 00:45:54;;;;;;;12.63;5.93;;;14.50;99.90;;;;;;5093986;28;20040;-65
2022/05/10 00:48:57;;;;;;;11.85;5.93;;;14.50;99.90;;;;;;5093852;28;20062;-66
2022/05/10 00:51:31;;;;;;;13.07;6.68;;;14.40;99.90;;;;;;5092556;28;20044;-65
2022/05/10 00:54:15;;;;;;;13.13;6.00;;;14.40;99.90;;;;;;5075881;28;20075;-65
2022/05/10 00:56:54;;;;;;;11.33;6.10;;;14.30;99.90;;;;;;5094215;28;20059;-65
2022/05/10 00:59:35;;;;;;;12.73;6.65;;;14.30;99.90;;;;;;5094151;28;20290;-65
2022/05/10 01:02:21;;;;;;;10.90;6.25;;;14.30;99.90;;;;;;5093813;28;20036;-65
2022/05/10 01:04:52;;;;;;;16.60;6.80;;;14.30;99.90;;;;;;5093827;28;20410;-64
2022/05/10 01:07:33;;;;;;;11.85;6.07;;;14.30;99.90;;;;;;5098170;28;20036;-64
2022/05/10 01:10:06;;;;;;;14.05;6.10;;;14.20;99.90;;;;;;5079619;28;20120;-65
2022/05/10 01:12:39;;;;;;;12.73;6.63;;;14.20;99.90;;;;;;5079860;28;20044;-64
2022/05/10 01:15:26;;;;;;;12.27;6.13;;;14.10;99.90;;;;;;5097742;28;20089;-65
2022/05/10 01:17:57;;;;;;;13.30;7.07;;;14.20;99.90;;;;;;5079826;28;20071;-63
2022/05/10 01:20:36;;;;;;;13.20;6.15;;;14.10;99.90;;;;;;5096732;28;20131;-65
2022/05/10 01:23:23;;;;;;;15.68;7.30;;;14.10;99.90;;;;;;5097816;28;20067;-65
2022/05/10 01:26:06;;;;;;;14.30;6.57;;;14.10;99.90;;;;;;5096930;28;20131;-65
2022/05/10 01:29:06;;;;;;;11.45;6.30;;;14.10;99.90;;;;;;5097096;28;20495;-65
2022/05/10 01:31:42;;;;;;;12.32;6.00;;;14.20;99.90;;;;;;5043370;28;20074;-63
2022/05/10 01:34:14;;;;;;;14.73;6.45;;;14.10;99.90;;;;;;5097476;28;20048;-65
2022/05/10 01:36:56;;;;;;;12.07;6.40;;;14.10;99.90;;;;;;5079580;28;20047;-65
2022/05/10 01:39:40;;;;;;;11.75;5.97;;;14.10;99.90;;;;;;5097278;28;20044;-65
2022/05/10 01:42:18;;;;;;;12.07;6.28;;;14.00;99.90;;;;;;5097620;28;20093;-65
2022/05/10 01:45:10;;;;;;;11.15;6.57;;;14.00;99.90;;;;;;5096933;28;20040;-65
2022/05/10 01:47:54;;;;;;;11.25;6.63;;;14.00;99.90;;;;;;5097352;28;20040;-66
2022/05/10 01:50:49;;;;;;;12.57;6.00;;;14.00;99.90;;;;;;5096576;28;20063;-65
2022/05/10 01:53:18;;;;;;;10.32;6.55;;;14.00;99.90;;;;;;5079298;28;20075;-65
2022/05/10 01:56:01;;;;;;;15.38;6.97;;;14.00;99.90;;;;;;5096577;28;20415;-65
2022/05/10 01:58:29;;;;;;;12.15;7.10;;;13.90;99.90;;;;;;5063217;28;20047;-64
2022/05/10 02:01:01;;;;;;;10.13;6.55;;;14.00;99.90;;;;;;5070653;28;20033;-66
2022/05/10 02:03:43;;;;;;;14.00;6.95;;;14.00;99.90;;;;;;5076154;28;20037;-65
2022/05/10 02:06:37;;;;;;;11.50;7.03;;;14.00;99.90;;;;;;5076276;28;20119;-66
2022/05/10 02:09:39;;;;;;;12.93;6.63;;;14.00;99.90;;;;;;5075854;28;20419;-65
2022/05/10 02:12:28;;;;;;;17.13;7.50;;;14.00;99.90;;;;;;5068800;28;20059;-66
2022/05/10 02:15:02;;;;;;;12.40;6.20;;;13.90;99.90;;;;;;5075766;28;20036;-65
2022/05/10 02:17:56;;;;;;;11.88;7.13;;;14.00;99.90;;;;;;5074825;28;20029;-65
2022/05/10 02:20:31;;;;;;;14.50;7.15;;;14.00;99.90;;;;;;5081997;28;20430;-65
2022/05/10 02:23:21;;;;;;;11.57;6.35;;;14.00;99.90;;;;;;5096808;28;20078;-64
2022/05/10 02:25:53;;;;;;;12.23;6.35;;;13.90;99.90;;;;;;5095956;28;20415;-65
2022/05/10 02:28:45;;;;;;;13.55;6.75;;;14.00;99.90;;;;;;5096233;28;20036;-65
2022/05/10 02:31:18;;;;;;;12.25;7.07;;;14.00;99.90;;;;;;5077228;28;20078;-64
2022/05/10 02:33:45;;;;;;;14.65;6.82;;;14.00;99.90;;;;;;5057318;28;20028;-66
2022/05/10 02:36:11;;;;;;;10.40;7.15;;;14.10;99.90;;;;;;5075973;28;20068;-65
2022/05/10 02:38:38;;;;;;;11.60;7.13;;;14.00;99.90;;;;;;5057770;28;20838;-65
2022/05/10 02:41:19;;;;;;;17.17;7.38;;;14.10;99.90;;;;;;5060691;28;20052;-65
2022/05/10 02:43:52;;;;;;;12.90;7.57;;;14.00;99.90;;;;;;5075290;28;20086;-66
2022/05/10 02:46:18;;;;;;;11.35;7.03;;;14.00;99.90;;;;;;5075329;28;20048;-64
2022/05/10 02:48:45;;;;;;;14.25;7.43;;;14.00;99.90;;;;;;5075303;28;20457;-65
2022/05/10 02:51:11;;;;;;;14.95;7.30;;;14.10;99.90;;;;;;5077670;28;20139;-66
2022/05/10 02:53:37;;;;;;;14.60;7.20;;;14.10;99.90;;;;;;5057310;28;20501;-65
2022/05/10 02:56:16;;;;;;;17.33;8.13;;;14.20;99.90;;;;;;5075628;28;20024;-65
2022/05/10 02:58:53;;;;;;;15.27;7.93;;;14.20;99.90;;;;;;5075773;28;20036;-66
2022/05/10 03:01:27;;;;;;;16.02;7.38;;;14.20;99.90;;;;;;5080769;28;20237;-66
2022/05/10 03:03:53;;;;;;;14.35;8.52;;;14.20;99.90;;;;;;5095693;28;20075;-64
2022/05/10 03:06:24;;;;;;;16.88;8.55;;;14.30;99.90;;;;;;5077733;28;20094;-65
2022/05/10 03:08:51;;;;;;;15.27;8.98;;;14.30;99.90;;;;;;5077628;28;20044;-65
2022/05/10 03:11:17;;;;;;;14.13;7.70;;;14.40;99.90;;;;;;5095050;28;20040;-66
2022/05/10 03:13:44;;;;;;;17.75;8.82;;;14.40;99.90;;;;;;5077246;28;20040;-64
2022/05/10 03:16:11;;;;;;;18.83;8.77;;;14.40;99.90;;;;;;5095669;28;20092;-65
2022/05/10 03:18:37;;;;;;;14.00;8.35;;;14.50;99.90;;;;;;5077672;28;20072;-65
2022/05/10 03:21:03;;;;;;;13.48;8.48;;;14.50;99.90;;;;;;5095412;28;20047;-65
2022/05/10 03:23:29;;;;;;;15.10;8.82;;;14.50;99.90;;;;;;5094908;28;20047;-65
2022/05/10 03:25:56;;;;;;;14.20;8.35;;;14.50;99.90;;;;;;5077604;28;20104;-65
2022/05/10 03:28:22;;;;;;;15.73;8.57;;;14.60;99.90;;;;;;5077360;28;20385;-65
2022/05/10 03:30:48;;;;;;;13.13;8.15;;;14.60;99.90;;;;;;5094688;28;20046;-65
2022/05/10 03:33:14;;;;;;;13.00;8.50;;;14.70;99.90;;;;;;5095139;28;20046;-65
2022/05/10 03:35:40;;;;;;;12.88;8.02;;;14.70;99.90;;;;;;5076943;28;20074;-65
2022/05/10 03:38:06;;;;;;;14.93;9.23;;;14.70;99.90;;;;;;5095036;28;20043;-66
2022/05/10 03:40:33;;;;;;;13.38;8.40;;;14.70;99.90;;;;;;5077180;28;20127;-66
2022/05/10 03:43:00;;;;;;;12.40;8.57;;;14.70;99.90;;;;;;5077056;28;20055;-65
2022/05/10 03:45:25;;;;;;;13.13;8.43;;;14.70;99.90;;;;;;5076594;28;20089;-64
2022/05/10 03:47:52;;;;;;;11.30;8.05;;;14.70;99.90;;;;;;5094915;28;20044;-65
2022/05/10 03:50:21;;;;;;;15.25;8.32;;;14.80;99.90;;;;;;5090750;28;20043;-65
2022/05/10 03:52:47;;;;;;;13.73;8.40;;;14.80;99.90;;;;;;5091547;28;20036;-65
2022/05/10 03:55:17;;;;;;;13.73;8.18;;;14.80;99.90;;;;;;5094628;28;20518;-65
2022/05/10 03:57:44;;;;;;;16.42;8.35;;;14.90;99.90;;;;;;5076920;28;20048;-65
2022/05/10 04:00:13;;;;;;;15.57;8.23;;;14.80;99.90;;;;;;5076599;28;20466;-64
2022/05/10 04:02:39;;;;;;;14.98;7.90;;;14.80;99.90;;;;;;5094723;28;20094;-66
2022/05/10 04:05:06;;;;;;;16.52;8.90;;;14.80;99.90;;;;;;5094337;28;20063;-65
2022/05/10 04:07:32;;;;;;;13.98;8.85;;;14.80;99.90;;;;;;5094670;28;20040;-65
2022/05/10 04:09:58;;;;;;;13.05;8.18;;;14.80;99.90;;;;;;5094266;28;20044;-65
2022/05/10 04:12:23;;;;;;;17.90;8.27;;;14.80;99.90;;;;;;5094618;28;20036;-64
2022/05/10 04:14:49;;;;;;;12.30;8.68;;;14.80;99.90;;;;;;5076156;28;20052;-65
2022/05/10 04:17:14;;;;;;;14.55;7.93;;;14.80;99.90;;;;;;5094490;28;20032;-65
2022/05/10 04:19:40;;;;;;;13.95;7.80;;;14.80;99.90;;;;;;5076362;28;20055;-64
2022/05/10 04:22:06;;;;;;;13.60;8.25;;;14.80;99.90;;;;;;5094022;28;20130;-65
2022/05/10 04:24:31;;;;;;;13.35;8.77;;;14.80;99.90;;;;;;5093797;28;20054;-64
2022/05/10 04:26:57;;;;;;;13.68;8.02;;;14.80;99.90;;;;;;5094357;28;20085;-64
2022/05/10 04:29:23;;;;;;;12.60;8.50;;;14.80;99.90;;;;;;5094268;28;20087;-63
2022/05/10 04:31:48;;;;;;;11.75;8.52;;;14.90;99.90;;;;;;5093842;28;20105;-63
2022/05/10 04:34:14;;;;;;;13.75;7.97;;;14.90;99.90;;;;;;5093672;28;20031;-64
2022/05/10 04:36:40;;;;;;;14.52;9.00;;;14.90;99.90;;;;;;5094350;28;20123;-64
2022/05/10 04:39:06;;;;;;;12.88;8.38;;;14.90;99.90;;;;;;5094381;28;20032;-63
2022/05/10 04:41:35;;;;;;;14.77;8.55;;;14.90;99.90;;;;;;5093454;28;20461;-64
2022/05/10 04:44:09;;;;;;;13.93;8.93;;;15.00;99.90;;;;;;5076019;28;20464;-64
2022/05/10 04:46:37;;;;;;;13.40;8.57;;;15.00;99.90;;;;;;5076464;28;20075;-64
2022/05/10 04:49:08;;;;;;;12.38;8.65;;;15.00;99.90;;;;;;5094134;28;20036;-64
2022/05/10 04:51:35;;;;;;;12.68;8.52;;;15.10;99.90;;;;;;5086329;28;20040;-64
2022/05/10 04:54:01;;;;;;;14.48;8.75;;;15.10;99.90;;;;;;5075983;28;20040;-65
2022/05/10 04:56:26;;;;;;;11.77;8.15;;;15.10;99.90;;;;;;5081580;28;20115;-66
2022/05/10 04:58:54;;;;;;;14.15;8.32;;;15.20;99.90;;;;;;5073012;28;20105;-64
2022/05/10 05:01:22;;;;;;;13.23;8.63;;;15.20;99.90;;;;;;5081826;28;20069;-64
2022/05/10 05:03:49;;;;;;;13.43;8.85;;;15.30;99.90;;;;;;5066281;28;20036;-64
2022/05/10 05:06:16;;;;;;;14.00;8.60;;;15.30;99.90;;;;;;5080556;28;20040;-65
2022/05/10 05:08:42;;;;;;;12.52;8.70;;;15.30;99.90;;;;;;5076030;28;20044;-63
2022/05/10 05:11:08;;;;;;;14.43;8.60;;;15.40;99.90;;;;;;5082825;28;20361;-64
2022/05/10 05:13:34;;;;;;;12.60;8.50;;;15.50;99.90;;;;;;5073451;28;20446;-63
2022/05/10 05:16:00;;;;;;;14.85;8.68;;;15.50;99.90;;;;;;5073024;28;20060;-65
2022/05/10 05:18:26;;;;;;;13.77;9.18;;;15.60;99.90;;;;;;5073464;28;20129;-65
2022/05/10 05:20:52;;;;;;;15.13;8.82;;;15.60;99.90;;;;;;5063393;28;20449;-65
2022/05/10 05:23:20;;;;;;;13.80;9.57;;;15.70;99.90;;;;;;5093533;28;20040;-66
2022/05/10 05:25:46;;;;;;;14.27;8.88;;;15.70;99.90;;;;;;5064402;28;20118;-64
2022/05/10 05:28:12;;;;;;;17.65;9.70;;;15.80;99.90;;;;;;5072884;28;20044;-67
2022/05/10 05:30:40;;;;;;;16.88;9.43;;;15.80;99.90;;;;;;5079207;28;20044;-65
2022/05/10 05:33:06;;;;;;;11.80;8.60;;;15.90;99.90;;;;;;5075650;28;20040;-63
2022/05/10 05:35:32;;;;;;;15.18;9.13;;;15.90;99.90;;;;;;5088327;28;20051;-64
2022/05/10 05:37:58;;;;;;;13.60;9.13;;;16.10;99.90;;;;;;5077287;28;20036;-65
2022/05/10 05:40:24;;;;;;;13.00;8.93;;;16.10;99.90;;;;;;5076024;28;20027;-63
2022/05/10 05:42:51;;;;;;;16.05;9.13;;;16.20;99.90;;;;;;5075580;28;20458;-63
2022/05/10 05:45:20;;;;;;;13.10;8.80;;;16.30;99.90;;;;;;5081750;28;20396;-64
2022/05/10 05:47:46;;;;;;;15.25;9.10;;;16.30;99.90;;;;;;5072180;28;20036;-64
2022/05/10 05:50:14;;;;;;;15.23;9.05;;;16.40;99.90;;;;;;5085627;28;20403;-66
2022/05/10 05:52:40;;;;;;;12.50;8.90;;;16.50;99.90;;;;;;5075788;28;20106;-66
2022/05/10 05:55:07;;;;;;;14.18;9.35;;;16.60;99.90;;;;;;5088341;28;20465;-62
2022/05/10 05:57:33;;;;;;;12.57;9.05;;;16.70;99.90;;;;;;5097059;28;20047;-63
2022/05/10 05:59:59;;;;;;;14.57;9.05;;;16.70;99.90;;;;;;5078627;28;20048;-62
2022/05/10 06:02:25;;;;;;;12.23;8.65;;;16.80;99.90;;;;;;5090565;28;20040;-63
2022/05/10 06:04:52;;;;;;;16.98;9.27;;;16.90;99.90;;;;;;5085350;28;20040;-62
2022/05/10 06:07:18;;;;;;;14.05;7.97;;;17.00;99.90;;;;;;5075066;28;20044;-64
2022/05/10 06:09:46;;;;;;;13.23;8.35;;;17.10;99.90;;;;;;5074894;28;20043;-66
2022/05/10 06:12:14;;;;;;;12.68;8.55;;;17.30;99.90;;;;;;5075302;28;20044;-64
2022/05/10 06:14:41;;;;;;;14.32;8.13;;;17.50;99.90;;;;;;5056769;28;20041;-63
2022/05/10 06:17:09;;;;;;;12.30;8.55;;;17.60;99.90;;;;;;5040355;28;20361;-66
2022/05/10 06:19:37;;;;;;;14.95;8.13;;;17.80;99.90;;;;;;5076843;28;20039;-63
2022/05/10 06:22:05;;;;;;;17.30;8.50;;;18.00;99.90;;;;;;5070901;28;20361;-64
2022/05/10 06:24:32;;;;;;;16.35;9.05;;;18.20;99.90;;;;;;5085899;28;20048;-63
2022/05/10 06:26:58;;;;;;;15.05;8.77;;;18.20;99.90;;;;;;5096608;28;20040;-66
2022/05/10 06:29:23;;;;;;;16.42;9.00;;;18.30;99.90;;;;;;5080996;28;20479;-63
2022/05/10 06:31:50;;;;;;;14.23;9.90;;;18.40;99.90;;;;;;5085447;28;20040;-63
2022/05/10 06:34:17;;;;;;;15.18;10.02;;;18.60;99.90;;;;;;5078682;28;20504;-63
2022/05/10 06:36:43;;;;;;;15.80;9.40;;;18.60;99.90;;;;;;5077984;28;20040;-63
2022/05/10 06:39:10;;;;;;;16.08;10.52;;;18.90;99.90;;;;;;5096395;28;20043;-64
2022/05/10 06:41:36;;;;;;;17.67;9.80;;;19.00;99.90;;;;;;5090895;28;20036;-63
2022/05/10 06:44:04;;;;;;;14.48;9.43;;;19.20;99.90;;;;;;5096437;28;20093;-63
2022/05/10 06:46:34;;;;;;;16.02;9.45;;;19.50;99.90;;;;;;5077571;28;20093;-64
2022/05/10 06:49:04;;;;;;;15.43;9.57;;;19.90;99.90;;;;;;5096033;28;20123;-63
2022/05/10 06:51:32;;;;;;;14.63;9.07;;;20.20;99.40;;;;;;5089370;28;20036;-63
2022/05/10 06:53:59;;;;;;;15.18;9.10;;;20.60;98.80;;;;;;5072024;28;20051;-63
2022/05/10 06:56:25;;;;;;;13.35;8.57;;;20.70;98.20;;;;;;5073664;28;20051;-63
2022/05/10 06:58:52;;;;;;;14.48;8.57;;;20.80;98.10;;;;;;5074104;28;20103;-64
2022/05/10 07:01:19;;;;;;;13.45;8.40;;;20.90;98.30;;;;;;5068527;28;20128;-63
2022/05/10 07:03:47;;;;;;;12.65;8.20;;;20.80;97.80;;;;;;5077468;28;20052;-64
2022/05/10 07:06:16;;;;;;;14.27;8.25;;;20.70;97.80;;;;;;5095389;28;20050;-63
2022/05/10 07:08:42;;;;;;;13.20;7.80;;;20.90;97.80;;;;;;5095732;28;20051;-63
2022/05/10 07:11:08;;;;;;;12.70;8.18;;;21.10;97.80;;;;;;5094795;28;20040;-64
2022/05/10 07:13:34;;;;;;;12.85;8.23;;;21.10;97.50;;;;;;5095428;28;20036;-64
2022/05/10 07:16:00;;;;;;;12.13;8.82;;;21.20;97.40;;;;;;5095230;28;20036;-64
2022/05/10 07:18:26;;;;;;;13.98;8.43;;;21.20;97.40;;;;;;5095394;28;20036;-65
2022/05/10 07:20:52;;;;;;;12.80;8.27;;;21.20;97.70;;;;;;5088762;28;20358;-63
2022/05/10 07:23:22;;;;;;;12.30;7.95;;;21.20;98.00;;;;;;5095424;28;20445;-62
2022/05/10 07:25:48;;;;;;;18.67;8.52;;;21.20;98.00;;;;;;5094483;28;20044;-62
2022/05/10 07:28:13;;;;;;;12.95;8.95;;;21.30;97.60;;;;;;5091544;28;20041;-64
2022/05/10 07:30:39;;;;;;;13.60;8.70;;;21.20;97.80;;;;;;5062700;28;20048;-62
2022/05/10 07:33:06;;;;;;;15.82;8.63;;;21.30;97.60;;;;;;5077303;28;20047;-63
2022/05/10 07:38:18;;;;;;;14.10;8.82;;;21.70;97.80;;;;;;5095173;28;20058;-63
2022/05/10 07:40:47;;;;;;;14.80;9.63;;;21.80;97.60;;;;;;5089197;28;20032;-62
2022/05/10 07:43:18;;;;;;;11.18;8.50;;;21.90;97.50;;;;;;5076898;28;20040;-63
2022/05/10 07:45:46;;;;;;;14.88;8.23;;;22.10;97.50;;;;;;5094755;28;20047;-63
2022/05/10 07:48:12;;;;;;;14.48;7.60;;;22.20;97.30;;;;;;5094752;28;20036;-63
2022/05/10 07:50:38;;;;;;;15.27;7.78;;;22.30;97.20;;;;;;5094558;28;20032;-65
2022/05/10 07:53:07;;;;;;;14.23;7.78;;;22.30;96.90;;;;;;5094429;28;20319;-64
2022/05/10 07:55:34;;;;;;;15.15;8.05;;;22.20;96.90;;;;;;5076531;28;20093;-64
2022/05/10 07:58:00;;;;;;;13.85;8.57;;;22.10;96.70;;;;;;5082409;28;20552;-64
2022/05/10 08:00:25;;;;;;;12.43;8.07;;;22.00;97.00;;;;;;5076146;28;20373;-64
2022/05/10 08:02:51;;;;;;;15.02;7.88;;;22.00;97.20;;;;;;5067693;28;20433;-64
2022/05/10 08:05:20;;;;;;;11.07;8.25;;;21.90;97.20;;;;;;5056025;28;20056;-63
2022/05/10 08:07:46;;;;;;;12.80;8.57;;;21.90;97.40;;;;;;5074429;28;20106;-64
2022/05/10 08:10:11;;;;;;;15.35;8.60;;;21.70;97.70;;;;;;5057712;28;20045;-64
2022/05/10 08:12:37;;;;;;;15.27;8.88;;;21.70;98.00;;;;;;5094698;28;20368;-63
2022/05/10 08:15:04;;;;;;;12.18;8.77;;;21.50;98.20;;;;;;5075160;28;20043;-64
2022/05/10 08:17:31;;;;;;;15.77;8.85;;;21.40;98.40;;;;;;5076294;28;20048;-62
2022/05/10 08:19:56;;;;;;;13.23;8.85;;;21.40;98.50;;;;;;5076404;28;20118;-62
2022/05/10 08:22:22;;;;;;;13.82;8.90;;;21.40;98.60;;;;;;5075930;28;20509;-62
2022/05/10 08:24:48;;;;;;;14.18;9.50;;;21.30;98.60;;;;;;5093668;28;20109;-63
2022/05/10 08:27:14;;;;;;;10.98;8.05;;;21.30;98.60;;;;;;5094422;28;20050;-63
2022/05/10 08:29:40;;;;;;;13.63;8.73;;;21.20;98.80;;;;;;5074359;28;20044;-65
2022/05/10 08:32:06;;;;;;;13.38;9.32;;;21.30;98.80;;;;;;5073346;28;20196;-63
2022/05/10 08:34:34;;;;;;;15.30;8.25;;;21.30;98.80;;;;;;5076100;28;20540;-63
2022/05/10 08:37:02;;;;;;;12.65;8.80;;;21.40;99.00;;;;;;5094160;28;20106;-64
2022/05/10 08:39:27;;;;;;;13.85;8.80;;;21.40;98.80;;;;;;5076561;28;20031;-64
2022/05/10 08:42:18;;;;;;;12.23;8.52;;;21.40;98.70;;;;;;5093704;28;20372;-62
2022/05/10 08:44:47;;;;;;;13.55;9.18;;;21.40;98.60;;;;;;5093807;28;20044;-62
2022/05/10 08:47:14;;;;;;;13.60;8.57;;;21.40;98.70;;;;;;5075948;28;20048;-63
2022/05/10 08:49:46;;;;;;;13.27;8.68;;;21.40;98.80;;;;;;5076168;28;20435;-64
2022/05/10 08:52:15;;;;;;;13.57;8.98;;;21.40;99.00;;;;;;5087984;28;20040;-63
2022/05/10 08:54:42;;;;;;;12.60;8.40;;;21.50;99.00;;;;;;5075747;28;20036;-62
2022/05/10 08:57:19;;;;;;;14.27;8.52;;;21.50;98.80;;;;;;5093788;28;20361;-63
2022/05/10 09:00:05;;;;;;;16.05;8.57;;;21.50;98.90;;;;;;5093807;28;20040;-63
2022/05/10 09:02:40;;;;;;;12.10;9.00;;;21.60;98.80;;;;;;5075359;28;20109;-62
2022/05/10 09:05:31;;;;;;;13.60;8.48;;;21.60;98.90;;;;;;5093427;28;20119;-63
2022/05/10 09:08:08;;;;;;;14.88;10.05;;;21.70;98.80;;;;;;5084733;28;20072;-64
2022/05/10 09:10:45;;;;;;;14.50;9.57;;;21.80;98.70;;;;;;5077347;28;20048;-62
2022/05/10 09:13:15;;;;;;;11.60;8.88;;;21.80;98.80;;;;;;5081738;28;20377;-63
2022/05/10 09:15:56;;;;;;;13.52;8.90;;;21.90;98.80;;;;;;5073345;28;20048;-62
2022/05/10 09:18:25;;;;;;;15.25;8.73;;;22.10;98.70;;;;;;5073397;28;20050;-62
2022/05/10 09:21:09;;;;;;;12.20;8.95;;;22.40;98.60;;;;;;5079434;28;20028;-63
2022/05/10 09:24:06;;;;;;;12.38;8.32;;;22.50;98.40;;;;;;5070319;28;20346;-63
2022/05/10 09:26:39;;;;;;;13.15;8.93;;;22.70;98.30;;;;;;5074707;28;20044;-63
2022/05/10 09:29:09;;;;;;;11.60;8.25;;;22.90;98.20;;;;;;5074419;28;20043;-63
2022/05/10 09:37:32;;;;;;;11.43;8.50;;;23.40;97.70;;;;;;5079346;28;20076;-63
2022/05/10 09:39:58;;;;;;;10.55;7.90;;;23.50;97.60;;;;;;5077003;28;20051;-63
2022/05/10 09:42:24;;;;;;;12.35;8.32;;;23.60;97.20;;;;;;5095777;28;20040;-64
2022/05/10 09:45:10;;;;;;;13.52;7.80;;;23.60;96.90;;;;;;5096928;28;20055;-64
2022/05/10 09:47:36;;;;;;;12.50;8.02;;;23.60;97.00;;;;;;5097413;28;20094;-63
2022/05/10 09:50:11;;;;;;;13.10;8.10;;;23.70;96.90;;;;;;5079577;28;20078;-63
2022/05/10 09:52:38;;;;;;;13.77;7.68;;;23.70;97.00;;;;;;5077041;28;20040;-63
2022/05/10 09:55:08;;;;;;;12.30;8.23;;;23.80;96.80;;;;;;5076508;28;20371;-63
2022/05/10 09:57:38;;;;;;;11.82;8.68;;;23.70;96.80;;;;;;5080068;28;20032;-64
2022/05/10 10:00:14;;;;;;;10.52;7.78;;;23.60;96.70;;;;;;5097158;28;20047;-63
2022/05/10 10:02:41;;;;;;;11.52;7.68;;;23.80;97.00;;;;;;5092706;28;20044;-63
2022/05/10 10:05:24;;;;;;;9.98;6.90;;;23.80;96.70;;;;;;5096962;28;20044;-64
2022/05/10 10:07:53;;;;;;;9.70;6.85;;;23.90;96.40;;;;;;5096962;28;20146;-63
2022/05/10 10:10:34;;;;;;;11.85;7.38;;;23.90;96.40;;;;;;5078736;28;20119;-63
2022/05/10 10:13:30;;;;;;;9.32;6.65;;;23.90;96.30;;;;;;5096789;28;20040;-63
2022/05/10 10:15:56;;;;;;;10.30;6.43;;;24.00;96.00;;;;;;5096634;28;20039;-63
2022/05/10 10:18:48;;;;;;;12.05;6.53;;;24.00;96.10;;;;;;5079597;28;20051;-65
2022/05/10 10:21:33;;;;;;;12.50;6.50;;;24.20;95.90;;;;;;5091429;28;20039;-64
2022/05/10 10:24:00;;;;;;;11.27;6.53;;;24.30;95.80;;;;;;5095851;28;20419;-65
2022/05/10 10:26:44;;;;;;;9.23;6.43;;;24.40;96.00;;;;;;5096313;28;20468;-66
2022/05/10 10:29:22;;;;;;;13.35;6.90;;;24.40;96.40;;;;;;5078126;28;20063;-63
2022/05/10 10:32:52;;;;;;;13.02;5.90;;;24.40;96.20;;;;;;5089270;28;20044;-63
2022/05/10 10:35:28;;;;;;;8.55;4.90;;;24.50;95.40;;;;;;4987827;28;20180;-63
2022/05/10 10:38:18;;;;;;;9.88;5.45;;;24.60;94.60;;;;;;5074164;28;20048;-65
2022/05/10 10:40:51;;;;;;;12.57;5.70;;;24.60;94.00;;;;;;5062335;28;20036;-64
2022/05/10 10:43:38;;;;;;;8.13;5.78;;;24.60;94.20;;;;;;5095960;28;20036;-63
2022/05/10 10:46:24;;;;;;;11.25;5.25;;;24.50;94.50;;;;;;5095911;28;20373;-64
2022/05/10 10:49:03;;;;;;;14.15;5.30;;;24.60;94.50;;;;;;5095905;28;20047;-64
2022/05/10 10:51:32;;;;;;;12.75;5.57;;;24.60;94.70;;;;;;5095350;28;20123;-64
2022/05/10 10:54:00;;;;;;;8.85;5.53;;;24.60;94.70;;;;;;5095567;28;20050;-65
2022/05/10 10:56:32;;;;;;;8.18;5.72;;;24.60;94.60;;;;;;5095847;28;20051;-63
2022/05/10 10:59:16;;;;;;;10.82;5.10;;;24.60;94.70;;;;;;5095815;28;20119;-62
2022/05/10 11:02:19;;;;;;;13.68;5.35;;;24.40;94.20;;;;;;5084844;28;20373;-64
2022/05/10 11:05:29;;;;;;;8.88;5.90;;;24.50;94.20;;;;;;5076487;28;20130;-61
2022/05/10 11:08:22;;;;;;;12.57;5.45;;;24.40;94.00;;;;;;5033175;28;20044;-62
2022/05/10 11:11:05;;;;;;;10.43;5.70;;;24.40;94.20;;;;;;5088277;28;20123;-62
2022/05/10 11:13:55;;;;;;;13.27;5.50;;;24.40;94.10;;;;;;5086469;28;20102;-62
2022/05/10 11:16:39;;;;;;;10.10;6.20;;;24.40;94.10;;;;;;5072934;28;20044;-62
2022/05/10 11:19:32;;;;;;;7.72;5.55;;;24.40;94.10;;;;;;5073069;28;20101;-62
2022/05/10 11:22:22;;;;;;;8.95;5.15;;;24.50;94.40;;;;;;5073188;28;20048;-62
2022/05/10 11:25:19;;;;;;;8.05;4.97;;;24.60;94.40;;;;;;5072230;28;20049;-62
2022/05/10 11:28:02;;;;;;;9.32;4.22;;;24.60;94.90;;;;;;5072642;28;20088;-62
2022/05/10 11:30:57;;;;;;;10.25;4.65;;;24.80;94.50;;;;;;5074729;28;20102;-62
2022/05/10 11:33:29;;;;;;;11.93;4.25;;;24.80;94.00;;;;;;5055879;28;20156;-62
2022/05/10 11:36:23;;;;;;;8.52;4.45;;;24.90;93.80;;;;;;5076015;28;20040;-62
2022/05/10 11:39:23;;;;;;;10.68;4.40;;;24.80;94.00;;;;;;5073713;28;20044;-62
2022/05/10 11:42:02;;;;;;;7.10;4.68;;;24.90;93.70;;;;;;5035281;28;20044;-62
2022/05/10 11:44:55;;;;;;;13.38;5.65;;;24.90;93.80;;;;;;5094575;28;20464;-63
2022/05/10 11:47:59;;;;;;;12.67;5.30;;;24.90;92.90;;;;;;5094991;28;20036;-62
2022/05/10 11:53:52;;;;;;;12.70;4.63;;;25.00;93.70;;;;;;4993739;28;20088;-61
2022/05/10 11:56:18;;;;;;;8.77;5.25;;;25.20;94.00;;;;;;5083047;28;20109;-62
2022/05/10 11:58:44;;;;;;;10.90;5.13;;;25.10;94.00;;;;;;5094790;28;20111;-61
2022/05/10 12:01:41;;;;;;;11.27;5.28;;;25.20;93.50;;;;;;5093939;28;20115;-61
2022/05/10 12:04:07;;;;;;;11.90;5.07;;;25.20;93.50;;;;;;5094457;28;20093;-62
2022/05/10 12:06:35;;;;;;;10.20;4.13;;;25.10;92.90;;;;;;5094470;28;20134;-62
2022/05/10 12:09:06;;;;;;;9.15;4.53;;;25.10;93.00;;;;;;5094205;28;20528;-62
2022/05/10 12:11:32;;;;;;;11.00;4.22;;;25.10;93.20;;;;;;5090178;28;20044;-63
2022/05/10 12:22:47;;;;;;;11.23;4.20;;;24.80;93.00;;;;;;5076541;28;20055;-63
2022/05/10 12:26:02;;;;;;;8.95;4.07;;;24.70;93.00;;;;;;5093624;28;20059;-62
2022/05/10 12:28:43;;;;;;;10.98;4.22;;;24.70;93.30;;;;;;5063215;28;20067;-62
2022/05/10 12:32:01;;;;;;;10.60;4.47;;;24.70;93.60;;;;;;5081357;28;20028;-65
2022/05/10 12:34:47;;;;;;;16.52;8.65;;;24.50;94.00;;;;;;5046306;28;20044;-62
2022/05/10 12:37:26;;;;;;;23.75;10.43;;;24.70;94.10;;;;;;5076621;28;20106;-63
2022/05/10 12:40:20;;;;;;;12.43;4.82;;;24.60;93.30;;;;;;5073921;28;20037;-61
2022/05/10 12:43:07;;;;;;;12.73;4.78;;;24.70;93.50;;;;;;5087746;28;20048;-62
2022/05/10 12:46:14;;;;;;;11.40;4.43;;;24.60;93.50;;;;;;5094063;28;20102;-62
2022/05/10 12:48:58;;;;;;;10.70;4.85;;;24.60;93.00;;;;;;5094376;28;20044;-62
2022/05/10 12:51:52;;;;;;;14.52;4.40;;;24.60;92.40;;;;;;5083570;28;20127;-62
2022/05/10 12:54:37;;;;;;;11.02;4.40;;;24.60;93.40;;;;;;5093732;28;20048;-62
2022/05/10 12:57:26;;;;;;;16.02;4.55;;;24.40;93.00;;;;;;5076142;28;20039;-63
2022/05/10 12:59:54;;;;;;;11.77;5.10;;;24.30;93.50;;;;;;5071185;28;20037;-61
2022/05/10 13:02:21;;;;;;;13.25;4.78;;;24.30;93.10;;;;;;5093475;28;20054;-62
2022/05/10 13:04:52;;;;;;;16.17;4.68;;;24.30;93.00;;;;;;5080256;28;20048;-62
2022/05/10 13:07:54;;;;;;;10.52;4.28;;;24.20;93.10;;;;;;5098206;28;20047;-62
2022/05/10 13:10:23;;;;;;;12.20;4.63;;;24.10;93.30;;;;;;5097936;28;20079;-62
2022/05/10 13:13:01;;;;;;;11.68;4.97;;;24.20;93.40;;;;;;5077595;28;20062;-62
2022/05/10 13:15:29;;;;;;;12.77;4.90;;;23.90;93.50;;;;;;5087241;28;20040;-62
2022/05/10 13:17:57;;;;;;;13.35;5.40;;;24.00;93.70;;;;;;5097182;28;20034;-62
2022/05/10 13:20:28;;;;;;;10.93;4.90;;;24.00;93.30;;;;;;5096915;28;20038;-62
2022/05/10 13:23:11;;;;;;;10.98;5.18;;;24.00;93.20;;;;;;5083930;28;20048;-64
2022/05/10 13:25:39;;;;;;;10.93;3.72;;;23.90;93.20;;;;;;5069833;28;20075;-62
2022/05/10 13:28:18;;;;;;;8.98;3.45;;;23.70;93.50;;;;;;5108457;28;20359;-62
2022/05/10 13:30:52;;;;;;;8.43;3.42;;;23.70;93.10;;;;;;5091146;28;20084;-62